sensor_id;sensor_type;location;lat;lon;timestamp;P1;durP1;ratioP1;P2;durP2;ratioP2
12308;SDS011;6217;48.150;17.142;2023-09-07T00:01:53;4.30;;;2.85;;
12308;SDS011;6217;48.150;17.142;2023-09-07T00:06:00;3.97;;;3.22;;
12308;SDS011;6217;48.150;17.142;2023-09-07T00:10:06;7.97;;;4.32;;
12308;SDS011;6217;48.150;17.142;2023-09-07T00:14:12;5.53;;;5.03;;
12308;SDS011;6217;48.150;17.142;2023-09-07T00:18:18;9.57;;;5.18;;
12308;SDS011;6217;48.150;17.142;2023-09-07T00:22:24;5.53;;;5.13;;
12308;SDS011;6217;48.150;17.142;2023-09-07T00:26:33;5.10;;;3.88;;
12308;SDS011;6217;48.150;17.142;2023-09-07T00:30:39;5.13;;;3.70;;
12308;SDS011;6217;48.150;17.142;2023-09-07T00:34:45;4.93;;;4.00;;
12308;SDS011;6217;48.150;17.142;2023-09-07T00:38:51;4.93;;;3.47;;
12308;SDS011;6217;48.150;17.142;2023-09-07T00:42:58;3.35;;;2.95;;
12308;SDS011;6217;48.150;17.142;2023-09-07T00:47:04;5.45;;;2.60;;
12308;SDS011;6217;48.150;17.142;2023-09-07T00:51:10;3.05;;;1.90;;
12308;SDS011;6217;48.150;17.142;2023-09-07T00:55:16;3.40;;;2.60;;
12308;SDS011;6217;48.150;17.142;2023-09-07T00:59:22;3.88;;;2.10;;
12308;SDS011;6217;48.150;17.142;2023-09-07T01:03:29;3.78;;;2.40;;
12308;SDS011;6217;48.150;17.142;2023-09-07T01:07:40;2.65;;;2.08;;
12308;SDS011;6217;48.150;17.142;2023-09-07T01:11:52;2.95;;;2.25;;
12308;SDS011;6217;48.150;17.142;2023-09-07T01:15:58;4.15;;;2.15;;
12308;SDS011;6217;48.150;17.142;2023-09-07T01:20:04;6.07;;;2.22;;
12308;SDS011;6217;48.150;17.142;2023-09-07T01:24:11;2.95;;;2.20;;
12308;SDS011;6217;48.150;17.142;2023-09-07T01:28:19;7.90;;;3.03;;
12308;SDS011;6217;48.150;17.142;2023-09-07T01:32:26;3.65;;;2.10;;
12308;SDS011;6217;48.150;17.142;2023-09-07T01:36:32;5.07;;;2.50;;
12308;SDS011;6217;48.150;17.142;2023-09-07T01:40:39;3.45;;;3.15;;
12308;SDS011;6217;48.150;17.142;2023-09-07T01:44:45;2.50;;;2.30;;
12308;SDS011;6217;48.150;17.142;2023-09-07T01:48:51;5.15;;;2.35;;
12308;SDS011;6217;48.150;17.142;2023-09-07T01:52:57;3.97;;;2.53;;
12308;SDS011;6217;48.150;17.142;2023-09-07T01:57:03;3.17;;;2.45;;
12308;SDS011;6217;48.150;17.142;2023-09-07T02:01:31;8.85;;;2.53;;
12308;SDS011;6217;48.150;17.142;2023-09-07T02:05:39;3.20;;;2.70;;
12308;SDS011;6217;48.150;17.142;2023-09-07T02:09:45;2.80;;;2.60;;
12308;SDS011;6217;48.150;17.142;2023-09-07T02:13:51;4.38;;;3.97;;
12308;SDS011;6217;48.150;17.142;2023-09-07T02:17:56;4.22;;;3.83;;
12308;SDS011;6217;48.150;17.142;2023-09-07T02:22:03;5.28;;;3.78;;
12308;SDS011;6217;48.150;17.142;2023-09-07T02:26:09;6.18;;;2.88;;
12308;SDS011;6217;48.150;17.142;2023-09-07T02:30:15;7.50;;;3.30;;
12308;SDS011;6217;48.150;17.142;2023-09-07T02:34:21;6.68;;;2.75;;
12308;SDS011;6217;48.150;17.142;2023-09-07T02:38:27;9.98;;;3.13;;
12308;SDS011;6217;48.150;17.142;2023-09-07T02:42:33;4.53;;;2.75;;
12308;SDS011;6217;48.150;17.142;2023-09-07T02:46:39;4.28;;;3.42;;
12308;SDS011;6217;48.150;17.142;2023-09-07T02:50:47;5.95;;;3.88;;
12308;SDS011;6217;48.150;17.142;2023-09-07T02:54:56;5.40;;;3.42;;
12308;SDS011;6217;48.150;17.142;2023-09-07T02:59:03;3.88;;;3.53;;
12308;SDS011;6217;48.150;17.142;2023-09-07T03:03:09;3.95;;;3.47;;
12308;SDS011;6217;48.150;17.142;2023-09-07T03:07:17;5.13;;;2.95;;
12308;SDS011;6217;48.150;17.142;2023-09-07T03:11:23;4.50;;;2.88;;
12308;SDS011;6217;48.150;17.142;2023-09-07T03:15:29;4.07;;;2.78;;
12308;SDS011;6217;48.150;17.142;2023-09-07T03:19:35;4.70;;;2.83;;
12308;SDS011;6217;48.150;17.142;2023-09-07T03:23:43;3.50;;;2.70;;
12308;SDS011;6217;48.150;17.142;2023-09-07T03:27:51;3.67;;;2.53;;
12308;SDS011;6217;48.150;17.142;2023-09-07T03:31:58;3.28;;;2.97;;
12308;SDS011;6217;48.150;17.142;2023-09-07T03:36:04;6.10;;;2.58;;
12308;SDS011;6217;48.150;17.142;2023-09-07T03:40:10;3.95;;;3.30;;
12308;SDS011;6217;48.150;17.142;2023-09-07T03:44:18;4.50;;;2.75;;
12308;SDS011;6217;48.150;17.142;2023-09-07T03:48:24;4.78;;;3.83;;
12308;SDS011;6217;48.150;17.142;2023-09-07T03:52:30;9.00;;;3.30;;
12308;SDS011;6217;48.150;17.142;2023-09-07T03:56:38;4.68;;;4.28;;
12308;SDS011;6217;48.150;17.142;2023-09-07T04:00:47;3.80;;;3.13;;
12308;SDS011;6217;48.150;17.142;2023-09-07T04:04:53;6.53;;;2.92;;
12308;SDS011;6217;48.150;17.142;2023-09-07T04:09:03;5.38;;;3.70;;
12308;SDS011;6217;48.150;17.142;2023-09-07T04:13:10;5.45;;;3.45;;
12308;SDS011;6217;48.150;17.142;2023-09-07T04:17:16;5.80;;;3.30;;
12308;SDS011;6217;48.150;17.142;2023-09-07T04:21:22;6.10;;;4.13;;
12308;SDS011;6217;48.150;17.142;2023-09-07T04:25:29;5.72;;;3.97;;
12308;SDS011;6217;48.150;17.142;2023-09-07T04:29:35;5.78;;;4.20;;
12308;SDS011;6217;48.150;17.142;2023-09-07T04:33:41;6.15;;;4.10;;
12308;SDS011;6217;48.150;17.142;2023-09-07T04:37:47;4.78;;;4.30;;
12308;SDS011;6217;48.150;17.142;2023-09-07T04:41:53;6.63;;;4.60;;
12308;SDS011;6217;48.150;17.142;2023-09-07T04:45:59;6.15;;;4.15;;
12308;SDS011;6217;48.150;17.142;2023-09-07T04:50:05;7.43;;;3.70;;
12308;SDS011;6217;48.150;17.142;2023-09-07T04:54:11;5.20;;;4.38;;
12308;SDS011;6217;48.150;17.142;2023-09-07T04:58:18;5.00;;;3.78;;
12308;SDS011;6217;48.150;17.142;2023-09-07T05:02:24;6.13;;;4.40;;
12308;SDS011;6217;48.150;17.142;2023-09-07T05:06:31;6.10;;;3.78;;
12308;SDS011;6217;48.150;17.142;2023-09-07T05:10:44;5.15;;;4.18;;
12308;SDS011;6217;48.150;17.142;2023-09-07T05:14:50;7.45;;;3.20;;
12308;SDS011;6217;48.150;17.142;2023-09-07T05:18:56;4.20;;;3.20;;
12308;SDS011;6217;48.150;17.142;2023-09-07T05:23:02;5.20;;;3.17;;
12308;SDS011;6217;48.150;17.142;2023-09-07T05:27:08;3.25;;;2.65;;
12308;SDS011;6217;48.150;17.142;2023-09-07T05:31:15;4.75;;;3.15;;
12308;SDS011;6217;48.150;17.142;2023-09-07T05:35:21;5.03;;;3.00;;
12308;SDS011;6217;48.150;17.142;2023-09-07T05:39:33;8.00;;;2.83;;
12308;SDS011;6217;48.150;17.142;2023-09-07T05:43:38;15.88;;;3.35;;
12308;SDS011;6217;48.150;17.142;2023-09-07T05:47:44;9.48;;;4.45;;
12308;SDS011;6217;48.150;17.142;2023-09-07T05:51:51;6.70;;;3.08;;
12308;SDS011;6217;48.150;17.142;2023-09-07T05:55:57;9.52;;;3.08;;
12308;SDS011;6217;48.150;17.142;2023-09-07T06:00:03;5.32;;;2.53;;
12308;SDS011;6217;48.150;17.142;2023-09-07T06:04:18;5.35;;;2.60;;
12308;SDS011;6217;48.150;17.142;2023-09-07T06:08:25;6.82;;;2.95;;
12308;SDS011;6217;48.150;17.142;2023-09-07T06:12:32;3.83;;;2.65;;
12308;SDS011;6217;48.150;17.142;2023-09-07T06:16:38;5.65;;;2.40;;
12308;SDS011;6217;48.150;17.142;2023-09-07T06:20:45;4.88;;;2.30;;
12308;SDS011;6217;48.150;17.142;2023-09-07T06:24:52;6.70;;;2.53;;
12308;SDS011;6217;48.150;17.142;2023-09-07T06:28:59;4.80;;;2.55;;
12308;SDS011;6217;48.150;17.142;2023-09-07T06:33:05;4.28;;;2.38;;
12308;SDS011;6217;48.150;17.142;2023-09-07T06:37:11;5.25;;;3.13;;
12308;SDS011;6217;48.150;17.142;2023-09-07T06:41:18;7.60;;;2.42;;
12308;SDS011;6217;48.150;17.142;2023-09-07T06:45:24;2.42;;;1.80;;
12308;SDS011;6217;48.150;17.142;2023-09-07T06:49:31;5.35;;;2.55;;
12308;SDS011;6217;48.150;17.142;2023-09-07T06:53:38;2.92;;;2.63;;
12308;SDS011;6217;48.150;17.142;2023-09-07T06:57:44;2.83;;;2.60;;
12308;SDS011;6217;48.150;17.142;2023-09-07T07:01:50;4.07;;;2.00;;
12308;SDS011;6217;48.150;17.142;2023-09-07T07:05:56;2.72;;;2.20;;
12308;SDS011;6217;48.150;17.142;2023-09-07T07:10:02;6.03;;;2.90;;
12308;SDS011;6217;48.150;17.142;2023-09-07T07:14:10;3.10;;;2.20;;
12308;SDS011;6217;48.150;17.142;2023-09-07T07:18:17;5.25;;;2.53;;
12308;SDS011;6217;48.150;17.142;2023-09-07T07:22:24;5.32;;;2.33;;
12308;SDS011;6217;48.150;17.142;2023-09-07T07:26:31;5.78;;;2.35;;
12308;SDS011;6217;48.150;17.142;2023-09-07T07:30:40;6.20;;;3.10;;
12308;SDS011;6217;48.150;17.142;2023-09-07T07:34:46;2.40;;;2.20;;
12308;SDS011;6217;48.150;17.142;2023-09-07T07:38:53;8.82;;;3.78;;
12308;SDS011;6217;48.150;17.142;2023-09-07T07:43:00;2.60;;;2.20;;
12308;SDS011;6217;48.150;17.142;2023-09-07T07:47:06;4.82;;;2.45;;
12308;SDS011;6217;48.150;17.142;2023-09-07T07:51:13;3.95;;;2.67;;
12308;SDS011;6217;48.150;17.142;2023-09-07T07:55:21;7.57;;;2.58;;
12308;SDS011;6217;48.150;17.142;2023-09-07T07:59:27;3.13;;;2.30;;
12308;SDS011;6217;48.150;17.142;2023-09-07T08:03:34;8.00;;;2.88;;
12308;SDS011;6217;48.150;17.142;2023-09-07T08:07:40;3.15;;;2.35;;
12308;SDS011;6217;48.150;17.142;2023-09-07T08:11:46;13.35;;;2.85;;
12308;SDS011;6217;48.150;17.142;2023-09-07T08:15:52;4.57;;;2.38;;
12308;SDS011;6217;48.150;17.142;2023-09-07T08:19:59;4.30;;;2.50;;
12308;SDS011;6217;48.150;17.142;2023-09-07T08:24:05;9.60;;;2.85;;
12308;SDS011;6217;48.150;17.142;2023-09-07T08:28:11;3.67;;;2.67;;
12308;SDS011;6217;48.150;17.142;2023-09-07T08:32:17;5.03;;;2.85;;
12308;SDS011;6217;48.150;17.142;2023-09-07T08:36:24;8.20;;;2.72;;
12308;SDS011;6217;48.150;17.142;2023-09-07T08:40:30;3.60;;;2.67;;
12308;SDS011;6217;48.150;17.142;2023-09-07T08:44:38;5.43;;;2.42;;
12308;SDS011;6217;48.150;17.142;2023-09-07T08:48:47;5.75;;;2.38;;
12308;SDS011;6217;48.150;17.142;2023-09-07T08:52:55;2.40;;;2.03;;
12308;SDS011;6217;48.150;17.142;2023-09-07T09:01:11;3.53;;;2.50;;
12308;SDS011;6217;48.150;17.142;2023-09-07T09:05:17;4.50;;;2.55;;
12308;SDS011;6217;48.150;17.142;2023-09-07T09:09:25;8.95;;;3.08;;
12308;SDS011;6217;48.150;17.142;2023-09-07T09:13:31;5.10;;;2.53;;
12308;SDS011;6217;48.150;17.142;2023-09-07T09:17:37;3.67;;;2.70;;
12308;SDS011;6217;48.150;17.142;2023-09-07T09:21:46;4.22;;;2.00;;
12308;SDS011;6217;48.150;17.142;2023-09-07T09:25:53;7.22;;;2.40;;
12308;SDS011;6217;48.150;17.142;2023-09-07T09:29:59;3.17;;;2.03;;
12308;SDS011;6217;48.150;17.142;2023-09-07T09:34:05;4.18;;;2.33;;
12308;SDS011;6217;48.150;17.142;2023-09-07T09:38:12;5.72;;;2.90;;
12308;SDS011;6217;48.150;17.142;2023-09-07T09:42:18;4.40;;;2.58;;
12308;SDS011;6217;48.150;17.142;2023-09-07T09:46:26;4.13;;;2.95;;
12308;SDS011;6217;48.150;17.142;2023-09-07T09:50:33;6.07;;;3.05;;
12308;SDS011;6217;48.150;17.142;2023-09-07T09:54:43;3.90;;;2.17;;
12308;SDS011;6217;48.150;17.142;2023-09-07T09:58:50;7.22;;;2.85;;
12308;SDS011;6217;48.150;17.142;2023-09-07T10:07:09;6.70;;;3.03;;
12308;SDS011;6217;48.150;17.142;2023-09-07T10:11:16;7.72;;;2.92;;
12308;SDS011;6217;48.150;17.142;2023-09-07T10:23:42;3.27;;;2.47;;
12308;SDS011;6217;48.150;17.142;2023-09-07T10:27:52;7.15;;;2.30;;
12308;SDS011;6217;48.150;17.142;2023-09-07T10:32:04;2.63;;;2.22;;
12308;SDS011;6217;48.150;17.142;2023-09-07T10:36:21;4.00;;;2.55;;
12308;SDS011;6217;48.150;17.142;2023-09-07T10:40:29;11.35;;;2.67;;
12308;SDS011;6217;48.150;17.142;2023-09-07T10:44:36;9.35;;;4.18;;
12308;SDS011;6217;48.150;17.142;2023-09-07T10:48:41;8.90;;;2.45;;
12308;SDS011;6217;48.150;17.142;2023-09-07T10:52:47;4.88;;;2.67;;
12308;SDS011;6217;48.150;17.142;2023-09-07T10:56:54;5.40;;;2.00;;
12308;SDS011;6217;48.150;17.142;2023-09-07T11:01:02;4.25;;;3.25;;
12308;SDS011;6217;48.150;17.142;2023-09-07T11:05:09;2.55;;;2.10;;
12308;SDS011;6217;48.150;17.142;2023-09-07T11:09:19;6.30;;;2.30;;
12308;SDS011;6217;48.150;17.142;2023-09-07T11:13:25;4.43;;;2.22;;
12308;SDS011;6217;48.150;17.142;2023-09-07T11:17:32;5.20;;;2.15;;
12308;SDS011;6217;48.150;17.142;2023-09-07T11:21:38;6.72;;;2.15;;
12308;SDS011;6217;48.150;17.142;2023-09-07T11:25:46;2.42;;;1.98;;
12308;SDS011;6217;48.150;17.142;2023-09-07T11:29:54;3.75;;;2.30;;
12308;SDS011;6217;48.150;17.142;2023-09-07T11:34:01;4.38;;;2.42;;
12308;SDS011;6217;48.150;17.142;2023-09-07T11:38:07;3.53;;;2.10;;
12308;SDS011;6217;48.150;17.142;2023-09-07T11:42:16;7.32;;;2.38;;
12308;SDS011;6217;48.150;17.142;2023-09-07T11:46:22;5.32;;;2.03;;
12308;SDS011;6217;48.150;17.142;2023-09-07T11:50:27;6.55;;;2.50;;
12308;SDS011;6217;48.150;17.142;2023-09-07T11:54:35;3.70;;;2.28;;
12308;SDS011;6217;48.150;17.142;2023-09-07T11:58:42;3.80;;;2.58;;
12308;SDS011;6217;48.150;17.142;2023-09-07T12:02:49;5.28;;;2.53;;
12308;SDS011;6217;48.150;17.142;2023-09-07T12:06:55;9.93;;;2.25;;
12308;SDS011;6217;48.150;17.142;2023-09-07T12:11:01;4.55;;;2.40;;
12308;SDS011;6217;48.150;17.142;2023-09-07T12:15:07;3.78;;;2.13;;
12308;SDS011;6217;48.150;17.142;2023-09-07T12:19:13;2.97;;;1.90;;
12308;SDS011;6217;48.150;17.142;2023-09-07T12:23:19;4.63;;;2.33;;
12308;SDS011;6217;48.150;17.142;2023-09-07T12:27:25;5.85;;;2.08;;
12308;SDS011;6217;48.150;17.142;2023-09-07T12:31:31;4.38;;;2.30;;
12308;SDS011;6217;48.150;17.142;2023-09-07T12:35:37;2.97;;;1.90;;
12308;SDS011;6217;48.150;17.142;2023-09-07T12:39:43;4.78;;;2.50;;
12308;SDS011;6217;48.150;17.142;2023-09-07T12:43:49;7.00;;;2.22;;
12308;SDS011;6217;48.150;17.142;2023-09-07T12:47:55;2.50;;;2.30;;
12308;SDS011;6217;48.150;17.142;2023-09-07T12:52:01;4.85;;;2.35;;
12308;SDS011;6217;48.150;17.142;2023-09-07T12:56:13;5.15;;;2.05;;
12308;SDS011;6217;48.150;17.142;2023-09-07T13:00:20;7.25;;;2.10;;
12308;SDS011;6217;48.150;17.142;2023-09-07T13:04:27;3.70;;;2.22;;
12308;SDS011;6217;48.150;17.142;2023-09-07T13:08:32;2.80;;;2.08;;
12308;SDS011;6217;48.150;17.142;2023-09-07T13:12:38;3.47;;;1.85;;
12308;SDS011;6217;48.150;17.142;2023-09-07T13:16:44;3.80;;;1.80;;
12308;SDS011;6217;48.150;17.142;2023-09-07T13:20:51;4.35;;;3.45;;
12308;SDS011;6217;48.150;17.142;2023-09-07T13:25:00;4.53;;;2.20;;
12308;SDS011;6217;48.150;17.142;2023-09-07T13:29:06;3.85;;;2.15;;
12308;SDS011;6217;48.150;17.142;2023-09-07T13:33:12;2.17;;;1.70;;
12308;SDS011;6217;48.150;17.142;2023-09-07T13:37:18;2.95;;;1.88;;
12308;SDS011;6217;48.150;17.142;2023-09-07T13:41:24;2.08;;;1.88;;
12308;SDS011;6217;48.150;17.142;2023-09-07T13:45:30;6.22;;;1.73;;
12308;SDS011;6217;48.150;17.142;2023-09-07T13:49:36;4.05;;;2.03;;
12308;SDS011;6217;48.150;17.142;2023-09-07T13:53:42;3.97;;;2.00;;
12308;SDS011;6217;48.150;17.142;2023-09-07T13:57:48;4.03;;;2.20;;
12308;SDS011;6217;48.150;17.142;2023-09-07T14:01:54;4.88;;;2.13;;
12308;SDS011;6217;48.150;17.142;2023-09-07T14:06:00;2.65;;;1.75;;
12308;SDS011;6217;48.150;17.142;2023-09-07T14:10:07;1.75;;;1.60;;
12308;SDS011;6217;48.150;17.142;2023-09-07T14:14:13;3.67;;;2.50;;
12308;SDS011;6217;48.150;17.142;2023-09-07T14:18:19;5.65;;;1.92;;
12308;SDS011;6217;48.150;17.142;2023-09-07T14:22:25;4.20;;;2.20;;
12308;SDS011;6217;48.150;17.142;2023-09-07T14:26:31;3.85;;;1.95;;
12308;SDS011;6217;48.150;17.142;2023-09-07T14:30:37;8.70;;;2.10;;
12308;SDS011;6217;48.150;17.142;2023-09-07T14:34:43;3.97;;;1.95;;
12308;SDS011;6217;48.150;17.142;2023-09-07T14:38:49;4.13;;;3.42;;
12308;SDS011;6217;48.150;17.142;2023-09-07T14:42:55;3.00;;;2.25;;
12308;SDS011;6217;48.150;17.142;2023-09-07T14:47:02;3.03;;;1.75;;
12308;SDS011;6217;48.150;17.142;2023-09-07T14:51:09;4.63;;;2.08;;
12308;SDS011;6217;48.150;17.142;2023-09-07T14:55:15;4.28;;;2.00;;
12308;SDS011;6217;48.150;17.142;2023-09-07T14:59:21;5.05;;;2.33;;
12308;SDS011;6217;48.150;17.142;2023-09-07T15:03:27;6.53;;;2.00;;
12308;SDS011;6217;48.150;17.142;2023-09-07T15:07:33;2.47;;;1.85;;
12308;SDS011;6217;48.150;17.142;2023-09-07T15:11:39;2.30;;;2.05;;
12308;SDS011;6217;48.150;17.142;2023-09-07T15:15:45;4.97;;;2.08;;
12308;SDS011;6217;48.150;17.142;2023-09-07T15:20:01;2.65;;;2.22;;
12308;SDS011;6217;48.150;17.142;2023-09-07T15:24:08;2.90;;;2.63;;
12308;SDS011;6217;48.150;17.142;2023-09-07T15:28:14;5.93;;;1.92;;
12308;SDS011;6217;48.150;17.142;2023-09-07T15:32:23;3.80;;;2.15;;
12308;SDS011;6217;48.150;17.142;2023-09-07T15:36:29;3.90;;;2.10;;
12308;SDS011;6217;48.150;17.142;2023-09-07T15:40:35;2.97;;;1.90;;
12308;SDS011;6217;48.150;17.142;2023-09-07T15:44:43;2.42;;;1.83;;
12308;SDS011;6217;48.150;17.142;2023-09-07T15:48:49;3.80;;;2.28;;
12308;SDS011;6217;48.150;17.142;2023-09-07T15:52:58;7.05;;;4.28;;
12308;SDS011;6217;48.150;17.142;2023-09-07T15:57:03;2.72;;;2.08;;
12308;SDS011;6217;48.150;17.142;2023-09-07T16:01:10;3.95;;;1.77;;
12308;SDS011;6217;48.150;17.142;2023-09-07T16:05:16;4.75;;;2.10;;
12308;SDS011;6217;48.150;17.142;2023-09-07T16:09:22;3.78;;;1.75;;
12308;SDS011;6217;48.150;17.142;2023-09-07T16:13:28;5.28;;;3.40;;
12308;SDS011;6217;48.150;17.142;2023-09-07T16:17:34;4.70;;;1.58;;
12308;SDS011;6217;48.150;17.142;2023-09-07T16:21:40;3.00;;;2.00;;
12308;SDS011;6217;48.150;17.142;2023-09-07T16:25:46;2.10;;;1.77;;
12308;SDS011;6217;48.150;17.142;2023-09-07T16:29:55;3.92;;;2.25;;
12308;SDS011;6217;48.150;17.142;2023-09-07T16:34:01;3.03;;;1.70;;
12308;SDS011;6217;48.150;17.142;2023-09-07T16:38:07;5.88;;;1.80;;
12308;SDS011;6217;48.150;17.142;2023-09-07T16:42:12;2.65;;;2.10;;
12308;SDS011;6217;48.150;17.142;2023-09-07T16:46:18;2.55;;;2.03;;
12308;SDS011;6217;48.150;17.142;2023-09-07T16:50:24;3.47;;;2.40;;
12308;SDS011;6217;48.150;17.142;2023-09-07T16:54:30;7.53;;;2.22;;
12308;SDS011;6217;48.150;17.142;2023-09-07T16:58:36;2.83;;;1.83;;
12308;SDS011;6217;48.150;17.142;2023-09-07T17:02:42;2.63;;;2.10;;
12308;SDS011;6217;48.150;17.142;2023-09-07T17:06:48;2.72;;;1.70;;
12308;SDS011;6217;48.150;17.142;2023-09-07T17:10:54;9.75;;;2.67;;
12308;SDS011;6217;48.150;17.142;2023-09-07T17:15:00;4.85;;;2.42;;
12308;SDS011;6217;48.150;17.142;2023-09-07T17:19:06;4.90;;;2.78;;
12308;SDS011;6217;48.150;17.142;2023-09-07T17:23:13;5.47;;;2.00;;
12308;SDS011;6217;48.150;17.142;2023-09-07T17:27:19;5.03;;;2.33;;
12308;SDS011;6217;48.150;17.142;2023-09-07T17:31:25;4.45;;;2.55;;
12308;SDS011;6217;48.150;17.142;2023-09-07T17:35:34;4.35;;;2.35;;
12308;SDS011;6217;48.150;17.142;2023-09-07T17:43:47;8.25;;;2.70;;
12308;SDS011;6217;48.150;17.142;2023-09-07T17:47:53;5.70;;;2.67;;
12308;SDS011;6217;48.150;17.142;2023-09-07T17:51:59;3.53;;;2.25;;
12308;SDS011;6217;48.150;17.142;2023-09-07T17:56:08;5.75;;;2.75;;
12308;SDS011;6217;48.150;17.142;2023-09-07T18:00:16;5.75;;;2.08;;
12308;SDS011;6217;48.150;17.142;2023-09-07T18:04:22;5.20;;;3.40;;
12308;SDS011;6217;48.150;17.142;2023-09-07T18:08:28;4.25;;;2.95;;
12308;SDS011;6217;48.150;17.142;2023-09-07T18:12:34;2.85;;;2.55;;
12308;SDS011;6217;48.150;17.142;2023-09-07T18:16:40;3.83;;;3.17;;
12308;SDS011;6217;48.150;17.142;2023-09-07T18:20:47;3.45;;;2.83;;
12308;SDS011;6217;48.150;17.142;2023-09-07T18:24:53;4.97;;;3.85;;
12308;SDS011;6217;48.150;17.142;2023-09-07T18:28:59;5.78;;;3.10;;
12308;SDS011;6217;48.150;17.142;2023-09-07T18:33:05;5.65;;;3.58;;
12308;SDS011;6217;48.150;17.142;2023-09-07T18:37:11;8.18;;;3.95;;
12308;SDS011;6217;48.150;17.142;2023-09-07T18:41:17;6.53;;;3.53;;
12308;SDS011;6217;48.150;17.142;2023-09-07T18:45:24;6.35;;;3.72;;
12308;SDS011;6217;48.150;17.142;2023-09-07T18:49:31;3.80;;;3.22;;
12308;SDS011;6217;48.150;17.142;2023-09-07T18:53:37;8.35;;;3.72;;
12308;SDS011;6217;48.150;17.142;2023-09-07T18:57:43;4.43;;;3.22;;
12308;SDS011;6217;48.150;17.142;2023-09-07T19:01:49;6.28;;;3.35;;
12308;SDS011;6217;48.150;17.142;2023-09-07T19:05:58;9.60;;;4.13;;
12308;SDS011;6217;48.150;17.142;2023-09-07T19:10:04;6.13;;;3.03;;
12308;SDS011;6217;48.150;17.142;2023-09-07T19:14:11;5.03;;;3.15;;
12308;SDS011;6217;48.150;17.142;2023-09-07T19:18:17;6.95;;;3.30;;
12308;SDS011;6217;48.150;17.142;2023-09-07T19:22:23;6.63;;;3.65;;
12308;SDS011;6217;48.150;17.142;2023-09-07T19:26:30;10.35;;;7.68;;
12308;SDS011;6217;48.150;17.142;2023-09-07T19:30:40;8.50;;;4.63;;
12308;SDS011;6217;48.150;17.142;2023-09-07T19:34:46;7.10;;;4.60;;
12308;SDS011;6217;48.150;17.142;2023-09-07T19:38:55;9.10;;;4.32;;
12308;SDS011;6217;48.150;17.142;2023-09-07T19:43:02;10.77;;;3.58;;
12308;SDS011;6217;48.150;17.142;2023-09-07T19:47:08;8.23;;;4.13;;
12308;SDS011;6217;48.150;17.142;2023-09-07T19:51:15;9.07;;;3.55;;
12308;SDS011;6217;48.150;17.142;2023-09-07T19:55:23;5.03;;;3.33;;
12308;SDS011;6217;48.150;17.142;2023-09-07T19:59:29;9.48;;;4.20;;
12308;SDS011;6217;48.150;17.142;2023-09-07T20:03:35;5.05;;;3.50;;
12308;SDS011;6217;48.150;17.142;2023-09-07T20:07:41;7.15;;;3.35;;
12308;SDS011;6217;48.150;17.142;2023-09-07T20:11:48;10.43;;;3.65;;
12308;SDS011;6217;48.150;17.142;2023-09-07T20:15:56;12.63;;;5.18;;
12308;SDS011;6217;48.150;17.142;2023-09-07T20:20:01;6.78;;;3.53;;
12308;SDS011;6217;48.150;17.142;2023-09-07T20:24:08;6.72;;;4.32;;
12308;SDS011;6217;48.150;17.142;2023-09-07T20:28:16;8.38;;;3.33;;
12308;SDS011;6217;48.150;17.142;2023-09-07T20:32:22;9.20;;;3.30;;
12308;SDS011;6217;48.150;17.142;2023-09-07T20:36:28;4.20;;;3.15;;
12308;SDS011;6217;48.150;17.142;2023-09-07T20:40:34;5.72;;;3.65;;
12308;SDS011;6217;48.150;17.142;2023-09-07T20:44:40;8.15;;;3.38;;
12308;SDS011;6217;48.150;17.142;2023-09-07T20:48:47;5.78;;;3.60;;
12308;SDS011;6217;48.150;17.142;2023-09-07T20:52:53;8.05;;;4.70;;
12308;SDS011;6217;48.150;17.142;2023-09-07T20:56:59;6.00;;;5.00;;
12308;SDS011;6217;48.150;17.142;2023-09-07T21:01:06;10.68;;;5.68;;
12308;SDS011;6217;48.150;17.142;2023-09-07T21:05:13;8.10;;;4.50;;
12308;SDS011;6217;48.150;17.142;2023-09-07T21:09:19;6.65;;;5.20;;
12308;SDS011;6217;48.150;17.142;2023-09-07T21:13:25;6.38;;;5.78;;
12308;SDS011;6217;48.150;17.142;2023-09-07T21:17:33;7.53;;;5.60;;
12308;SDS011;6217;48.150;17.142;2023-09-07T21:21:43;6.38;;;5.40;;
12308;SDS011;6217;48.150;17.142;2023-09-07T21:25:54;8.73;;;6.07;;
12308;SDS011;6217;48.150;17.142;2023-09-07T21:30:02;11.23;;;8.30;;
12308;SDS011;6217;48.150;17.142;2023-09-07T21:34:09;8.45;;;6.15;;
12308;SDS011;6217;48.150;17.142;2023-09-07T21:38:17;8.40;;;7.03;;
12308;SDS011;6217;48.150;17.142;2023-09-07T21:42:24;9.45;;;5.90;;
12308;SDS011;6217;48.150;17.142;2023-09-07T21:46:30;8.60;;;5.07;;
12308;SDS011;6217;48.150;17.142;2023-09-07T21:50:37;11.07;;;5.85;;
12308;SDS011;6217;48.150;17.142;2023-09-07T21:54:44;7.88;;;5.75;;
12308;SDS011;6217;48.150;17.142;2023-09-07T21:58:52;8.18;;;5.28;;
12308;SDS011;6217;48.150;17.142;2023-09-07T22:03:00;8.88;;;4.95;;
12308;SDS011;6217;48.150;17.142;2023-09-07T22:07:07;8.32;;;4.63;;
12308;SDS011;6217;48.150;17.142;2023-09-07T22:11:15;24.58;;;5.75;;
12308;SDS011;6217;48.150;17.142;2023-09-07T22:15:23;7.57;;;5.93;;
12308;SDS011;6217;48.150;17.142;2023-09-07T22:19:29;6.68;;;4.40;;
12308;SDS011;6217;48.150;17.142;2023-09-07T22:23:37;4.78;;;4.28;;
12308;SDS011;6217;48.150;17.142;2023-09-07T22:27:44;6.40;;;4.45;;
12308;SDS011;6217;48.150;17.142;2023-09-07T22:31:53;6.72;;;5.30;;
12308;SDS011;6217;48.150;17.142;2023-09-07T22:35:59;5.22;;;4.53;;
12308;SDS011;6217;48.150;17.142;2023-09-07T22:40:05;8.02;;;3.55;;
12308;SDS011;6217;48.150;17.142;2023-09-07T22:44:20;7.57;;;3.72;;
12308;SDS011;6217;48.150;17.142;2023-09-07T22:48:26;7.25;;;4.47;;
12308;SDS011;6217;48.150;17.142;2023-09-07T22:52:32;3.80;;;3.05;;
12308;SDS011;6217;48.150;17.142;2023-09-07T22:56:38;6.68;;;4.25;;
12308;SDS011;6217;48.150;17.142;2023-09-07T23:00:45;4.15;;;3.72;;
12308;SDS011;6217;48.150;17.142;2023-09-07T23:04:55;4.82;;;2.60;;
12308;SDS011;6217;48.150;17.142;2023-09-07T23:09:01;5.82;;;3.45;;
12308;SDS011;6217;48.150;17.142;2023-09-07T23:13:09;5.72;;;4.50;;
12308;SDS011;6217;48.150;17.142;2023-09-07T23:17:15;4.43;;;3.78;;
12308;SDS011;6217;48.150;17.142;2023-09-07T23:21:21;6.72;;;4.03;;
12308;SDS011;6217;48.150;17.142;2023-09-07T23:25:27;5.45;;;4.53;;
12308;SDS011;6217;48.150;17.142;2023-09-07T23:29:33;6.72;;;6.00;;
12308;SDS011;6217;48.150;17.142;2023-09-07T23:33:39;6.63;;;5.15;;
12308;SDS011;6217;48.150;17.142;2023-09-07T23:37:45;5.70;;;5.03;;
12308;SDS011;6217;48.150;17.142;2023-09-07T23:41:51;8.07;;;6.05;;
12308;SDS011;6217;48.150;17.142;2023-09-07T23:45:57;8.77;;;7.07;;
12308;SDS011;6217;48.150;17.142;2023-09-07T23:50:03;10.25;;;5.75;;
12308;SDS011;6217;48.150;17.142;2023-09-07T23:54:10;7.28;;;6.03;;
12308;SDS011;6217;48.150;17.142;2023-09-07T23:58:16;9.45;;;7.85;;
